createdAt,value
2023-02-19T20:30:00.505Z,95371.04
2023-02-19T20:32:27.468Z,95373.46
2023-02-19T20:34:54.394Z,95377.33
2023-02-19T20:37:21.341Z,95377.29
2023-02-19T20:39:55.927Z,95381.89
2023-02-19T20:42:22.881Z,95380.09
2023-02-19T20:44:49.696Z,95376.98
2023-02-19T20:47:16.726Z,95380.93
2023-02-19T20:49:46.983Z,95386.64
2023-02-19T20:52:16.630Z,95394.94
2023-02-19T20:54:44.478Z,95397.61
2023-02-19T20:57:12.144Z,95401.60
2023-02-19T20:59:40.885Z,95405.30
2023-02-19T21:02:14.198Z,95404.45
2023-02-19T21:04:41.213Z,95403.46
2023-02-19T21:07:08.035Z,95401.23
2023-02-19T21:09:34.954Z,95398.64
2023-02-19T21:12:01.838Z,95399.96
2023-02-19T21:14:28.623Z,95402.40
2023-02-19T21:16:55.500Z,95404.05
2023-02-19T21:19:22.995Z,95399.73
2023-02-19T21:21:49.868Z,95397.88
2023-02-19T21:24:17.260Z,95400.19
2023-02-19T21:26:45.035Z,95404.13
2023-02-19T21:29:19.180Z,95402.05
2023-02-19T21:31:51.458Z,95403.06
2023-02-19T21:34:20.476Z,95405.38
2023-02-19T21:36:47.481Z,95409.55
2023-02-19T21:39:17.477Z,95414.66
2023-02-19T21:41:44.438Z,95416.27
2023-02-19T21:44:11.454Z,95416.25
2023-02-19T21:46:38.441Z,95413.82
2023-02-19T21:49:05.623Z,95419.27
2023-02-19T21:51:38.734Z,95420.20
2023-02-19T21:54:06.800Z,95422.65
2023-02-19T21:56:36.379Z,95430.37
2023-02-19T21:59:03.928Z,95429.91
2023-02-19T22:01:38.890Z,95428.98
2023-02-19T22:04:07.514Z,95431.44
2023-02-19T22:06:35.203Z,95434.06
2023-02-19T22:09:02.147Z,95442.50
2023-02-19T22:11:29.259Z,95441.99
2023-02-19T22:13:56.351Z,95450.36
2023-02-19T22:16:24.081Z,95451.39
2023-02-19T22:18:54.320Z,95453.30
2023-02-19T22:21:24.495Z,95456.11
2023-02-19T22:23:53.397Z,95459.34
2023-02-19T22:26:26.353Z,95463.81
2023-02-19T22:28:53.207Z,95468.21
2023-02-19T22:31:22.566Z,95471.93
2023-02-19T22:33:50.172Z,95473.67
2023-02-19T22:36:23.029Z,95482.55
2023-02-19T22:38:50.690Z,95484.35
2023-02-19T22:41:18.536Z,95484.48
2023-02-19T22:43:45.756Z,95491.29
2023-02-19T22:46:19.121Z,95492.14
2023-02-19T22:48:46.305Z,95495.70
2023-02-19T22:51:19.261Z,95501.21
2023-02-19T22:53:51.678Z,95496.05
2023-02-19T22:56:21.057Z,95492.02
2023-02-19T22:58:48.148Z,95494.27
2023-02-19T23:01:15.647Z,95492.33
2023-02-19T23:03:49.056Z,95489.45
2023-02-19T23:06:18.047Z,95485.27
2023-02-19T23:08:45.008Z,95483.55
2023-02-19T23:11:13.282Z,95475.95
2023-02-19T23:13:43.028Z,95473.52
2023-02-19T23:16:10.024Z,95468.73
2023-02-19T23:18:37.087Z,95471.89
2023-02-19T23:21:03.988Z,95473.71
2023-02-19T23:23:30.810Z,95473.05
2023-02-19T23:25:57.759Z,95474.59
2023-02-19T23:28:24.819Z,95475.98
2023-02-19T23:30:51.755Z,95475.77
2023-02-19T23:33:18.598Z,95477.18
2023-02-19T23:35:45.414Z,95474.69
2023-02-19T23:38:12.514Z,95480.71
2023-02-19T23:40:39.407Z,95477.36
2023-02-19T23:43:06.318Z,95476.00
2023-02-19T23:45:33.217Z,95479.05
2023-02-19T23:48:00.127Z,95487.08
2023-02-19T23:57:50.111Z,95506.58
